sensor_id;sensor_type;location;lat;lon;timestamp;pressure;altitude;pressure_sealevel;temperature;humidity
39209;BME280;24929;51.982;4.664;2023-04-23T00:02:11;76589.91;;;-143.36;nan
39209;BME280;24929;51.982;4.664;2023-04-23T00:04:37;76581.88;;;-143.36;nan
39209;BME280;24929;51.982;4.664;2023-04-23T00:07:04;76561.81;;;-143.36;nan
39209;BME280;24929;51.982;4.664;2023-04-23T00:09:30;76597.91;;;-143.36;nan
39209;BME280;24929;51.982;4.664;2023-04-23T00:11:58;76630.03;;;-143.36;nan
39209;BME280;24929;51.982;4.664;2023-04-23T00:14:23;76624.00;;;-143.36;nan
39209;BME280;24929;51.982;4.664;2023-04-23T00:16:49;76591.91;;;-143.36;nan
39209;BME280;24929;51.982;4.664;2023-04-23T00:19:14;76571.84;;;-143.36;nan
39209;BME280;24929;51.982;4.664;2023-04-23T00:21:40;76575.84;;;-143.36;nan
39209;BME280;24929;51.982;4.664;2023-04-23T00:24:05;76601.94;;;-143.36;nan
39209;BME280;24929;51.982;4.664;2023-04-23T00:26:31;76611.97;;;-143.36;nan
39209;BME280;24929;51.982;4.664;2023-04-23T00:28:56;76609.97;;;-143.36;nan
39209;BME280;24929;51.982;4.664;2023-04-23T00:31:22;76561.81;;;-143.36;nan
39209;BME280;24929;51.982;4.664;2023-04-23T00:33:48;76555.78;;;-143.36;nan
39209;BME280;24929;51.982;4.664;2023-04-23T00:36:14;76563.81;;;-143.36;nan
39209;BME280;24929;51.982;4.664;2023-04-23T00:38:39;76565.81;;;-143.36;nan
39209;BME280;24929;51.982;4.664;2023-04-23T00:41:05;76545.75;;;-143.36;nan
39209;BME280;24929;51.982;4.664;2023-04-23T00:43:31;76563.81;;;-143.36;nan
39209;BME280;24929;51.982;4.664;2023-04-23T00:45:56;76565.81;;;-143.36;nan
39209;BME280;24929;51.982;4.664;2023-04-23T00:48:22;76545.75;;;-143.36;nan
39209;BME280;24929;51.982;4.664;2023-04-23T00:50:48;76581.88;;;-143.36;nan
39209;BME280;24929;51.982;4.664;2023-04-23T00:53:13;76628.03;;;-143.36;nan
39209;BME280;24929;51.982;4.664;2023-04-23T00:55:39;76579.88;;;-143.36;nan
39209;BME280;24929;51.982;4.664;2023-04-23T00:58:04;76577.84;;;-143.36;nan
39209;BME280;24929;51.982;4.664;2023-04-23T01:00:31;76559.78;;;-143.36;nan
39209;BME280;24929;51.982;4.664;2023-04-23T01:02:57;76577.84;;;-143.36;nan
39209;BME280;24929;51.982;4.664;2023-04-23T01:05:24;76529.69;;;-143.36;nan
39209;BME280;24929;51.982;4.664;2023-04-23T01:07:50;76551.75;;;-143.36;nan
39209;BME280;24929;51.982;4.664;2023-04-23T01:10:16;76509.63;;;-143.36;nan
39209;BME280;24929;51.982;4.664;2023-04-23T01:12:41;76523.66;;;-143.36;nan
39209;BME280;24929;51.982;4.664;2023-04-23T01:15:07;76539.72;;;-143.36;nan
39209;BME280;24929;51.982;4.664;2023-04-23T01:17:33;76545.75;;;-143.36;nan
39209;BME280;24929;51.982;4.664;2023-04-23T01:19:58;76541.72;;;-143.36;nan
39209;BME280;24929;51.982;4.664;2023-04-23T01:22:24;76525.69;;;-143.36;nan
39209;BME280;24929;51.982;4.664;2023-04-23T01:24:50;76521.66;;;-143.36;nan
39209;BME280;24929;51.982;4.664;2023-04-23T01:27:16;76531.69;;;-143.36;nan
39209;BME280;24929;51.982;4.664;2023-04-23T01:29:44;76539.72;;;-143.36;nan
39209;BME280;24929;51.982;4.664;2023-04-23T01:32:11;76515.66;;;-143.36;nan
39209;BME280;24929;51.982;4.664;2023-04-23T01:34:37;76559.78;;;-143.36;nan
39209;BME280;24929;51.982;4.664;2023-04-23T01:37:03;76541.72;;;-143.36;nan
39209;BME280;24929;51.982;4.664;2023-04-23T01:39:28;76523.66;;;-143.36;nan
39209;BME280;24929;51.982;4.664;2023-04-23T01:41:54;76531.69;;;-143.36;nan
39209;BME280;24929;51.982;4.664;2023-04-23T01:44:19;76517.66;;;-143.36;nan
39209;BME280;24929;51.982;4.664;2023-04-23T01:46:45;76503.59;;;-143.36;nan
39209;BME280;24929;51.982;4.664;2023-04-23T01:49:11;76473.50;;;-143.36;nan
39209;BME280;24929;51.982;4.664;2023-04-23T01:51:36;76509.63;;;-143.36;nan
39209;BME280;24929;51.982;4.664;2023-04-23T01:54:02;76501.59;;;-143.36;nan
39209;BME280;24929;51.982;4.664;2023-04-23T01:56:27;76543.75;;;-143.36;nan
39209;BME280;24929;51.982;4.664;2023-04-23T01:58:54;76521.66;;;-143.36;nan
39209;BME280;24929;51.982;4.664;2023-04-23T02:01:20;76521.66;;;-143.36;nan
39209;BME280;24929;51.982;4.664;2023-04-23T02:03:48;76451.44;;;-143.36;nan
39209;BME280;24929;51.982;4.664;2023-04-23T02:06:13;76455.44;;;-143.36;nan
39209;BME280;24929;51.982;4.664;2023-04-23T02:08:39;76489.56;;;-143.36;nan
39209;BME280;24929;51.982;4.664;2023-04-23T02:11:05;76471.50;;;-143.36;nan
39209;BME280;24929;51.982;4.664;2023-04-23T02:13:33;76449.44;;;-143.36;nan
39209;BME280;24929;51.982;4.664;2023-04-23T02:15:59;76465.47;;;-143.36;nan
39209;BME280;24929;51.982;4.664;2023-04-23T02:18:24;76465.47;;;-143.36;nan
39209;BME280;24929;51.982;4.664;2023-04-23T02:20:49;76453.44;;;-143.36;nan
39209;BME280;24929;51.982;4.664;2023-04-23T02:23:15;76459.47;;;-143.36;nan
39209;BME280;24929;51.982;4.664;2023-04-23T02:25:40;76451.44;;;-143.36;nan
39209;BME280;24929;51.982;4.664;2023-04-23T02:28:07;76435.38;;;-143.36;nan
39209;BME280;24929;51.982;4.664;2023-04-23T02:30:34;76433.38;;;-143.36;nan
39209;BME280;24929;51.982;4.664;2023-04-23T02:32:59;76451.44;;;-143.36;nan
39209;BME280;24929;51.982;4.664;2023-04-23T02:35:25;76471.50;;;-143.36;nan
39209;BME280;24929;51.982;4.664;2023-04-23T02:37:52;76445.41;;;-143.36;nan
39209;BME280;24929;51.982;4.664;2023-04-23T02:40:18;76447.41;;;-143.36;nan
39209;BME280;24929;51.982;4.664;2023-04-23T02:42:44;76431.38;;;-143.36;nan
39209;BME280;24929;51.982;4.664;2023-04-23T02:45:10;76399.25;;;-143.36;nan
39209;BME280;24929;51.982;4.664;2023-04-23T02:47:35;76403.28;;;-143.36;nan
39209;BME280;24929;51.982;4.664;2023-04-23T02:50:00;76387.22;;;-143.36;nan
39209;BME280;24929;51.982;4.664;2023-04-23T02:52:29;76399.25;;;-143.36;nan
39209;BME280;24929;51.982;4.664;2023-04-23T02:54:55;76407.28;;;-143.36;nan
39209;BME280;24929;51.982;4.664;2023-04-23T02:57:20;76401.25;;;-143.36;nan
39209;BME280;24929;51.982;4.664;2023-04-23T02:59:46;76429.34;;;-143.36;nan
39209;BME280;24929;51.982;4.664;2023-04-23T03:02:11;76449.44;;;-143.36;nan
39209;BME280;24929;51.982;4.664;2023-04-23T03:04:36;76455.44;;;-143.36;nan
39209;BME280;24929;51.982;4.664;2023-04-23T03:07:02;76455.44;;;-143.36;nan
39209;BME280;24929;51.982;4.664;2023-04-23T03:09:27;76447.41;;;-143.36;nan
39209;BME280;24929;51.982;4.664;2023-04-23T03:11:52;76443.41;;;-143.36;nan
39209;BME280;24929;51.982;4.664;2023-04-23T03:14:18;76465.47;;;-143.36;nan
39209;BME280;24929;51.982;4.664;2023-04-23T03:16:43;76481.53;;;-143.36;nan
39209;BME280;24929;51.982;4.664;2023-04-23T03:19:08;76453.44;;;-143.36;nan
39209;BME280;24929;51.982;4.664;2023-04-23T03:21:34;76463.47;;;-143.36;nan
39209;BME280;24929;51.982;4.664;2023-04-23T03:23:59;76473.50;;;-143.36;nan
39209;BME280;24929;51.982;4.664;2023-04-23T03:26:25;76485.53;;;-143.36;nan
39209;BME280;24929;51.982;4.664;2023-04-23T03:28:50;76467.50;;;-143.36;nan
39209;BME280;24929;51.982;4.664;2023-04-23T03:31:15;76449.44;;;-143.36;nan
39209;BME280;24929;51.982;4.664;2023-04-23T03:33:41;76433.38;;;-143.36;nan
39209;BME280;24929;51.982;4.664;2023-04-23T03:36:06;76429.34;;;-143.36;nan
39209;BME280;24929;51.982;4.664;2023-04-23T03:38:32;76449.44;;;-143.36;nan
39209;BME280;24929;51.982;4.664;2023-04-23T03:40:57;76395.25;;;-143.36;nan
39209;BME280;24929;51.982;4.664;2023-04-23T03:43:23;76399.25;;;-143.36;nan
39209;BME280;24929;51.982;4.664;2023-04-23T03:45:48;76395.25;;;-143.36;nan
39209;BME280;24929;51.982;4.664;2023-04-23T03:48:13;76389.22;;;-143.36;nan
39209;BME280;24929;51.982;4.664;2023-04-23T03:50:39;76373.16;;;-143.36;nan
39209;BME280;24929;51.982;4.664;2023-04-23T03:53:05;76349.09;;;-143.36;nan
39209;BME280;24929;51.982;4.664;2023-04-23T03:55:32;76347.09;;;-143.36;nan
39209;BME280;24929;51.982;4.664;2023-04-23T03:57:57;76363.13;;;-143.36;nan
39209;BME280;24929;51.982;4.664;2023-04-23T04:00:26;76377.19;;;-143.36;nan
39209;BME280;24929;51.982;4.664;2023-04-23T04:02:51;76351.09;;;-143.36;nan
39209;BME280;24929;51.982;4.664;2023-04-23T04:05:16;76381.19;;;-143.36;nan
39209;BME280;24929;51.982;4.664;2023-04-23T04:07:42;76389.22;;;-143.36;nan
39209;BME280;24929;51.982;4.664;2023-04-23T04:10:07;76377.19;;;-143.36;nan
39209;BME280;24929;51.982;4.664;2023-04-23T04:12:33;76453.44;;;-143.36;nan
39209;BME280;24929;51.982;4.664;2023-04-23T04:14:58;76499.59;;;-143.36;nan
39209;BME280;24929;51.982;4.664;2023-04-23T04:17:24;76495.59;;;-143.36;nan
39209;BME280;24929;51.982;4.664;2023-04-23T04:19:49;76497.59;;;-143.36;nan
39209;BME280;24929;51.982;4.664;2023-04-23T04:22:15;76517.66;;;-143.36;nan
39209;BME280;24929;51.982;4.664;2023-04-23T04:24:41;76505.63;;;-143.36;nan
39209;BME280;24929;51.982;4.664;2023-04-23T04:27:07;76539.72;;;-143.36;nan
39209;BME280;24929;51.982;4.664;2023-04-23T04:29:33;76501.59;;;-143.36;nan
39209;BME280;24929;51.982;4.664;2023-04-23T04:31:59;76505.63;;;-143.36;nan
39209;BME280;24929;51.982;4.664;2023-04-23T04:34:25;76527.69;;;-143.36;nan
39209;BME280;24929;51.982;4.664;2023-04-23T04:36:51;76525.69;;;-143.36;nan
39209;BME280;24929;51.982;4.664;2023-04-23T04:39:18;76501.59;;;-143.36;nan
39209;BME280;24929;51.982;4.664;2023-04-23T04:41:44;76507.63;;;-143.36;nan
39209;BME280;24929;51.982;4.664;2023-04-23T04:44:09;76509.63;;;-143.36;nan
39209;BME280;24929;51.982;4.664;2023-04-23T04:46:35;76515.66;;;-143.36;nan
39209;BME280;24929;51.982;4.664;2023-04-23T04:49:07;76491.56;;;-143.36;nan
39209;BME280;24929;51.982;4.664;2023-04-23T04:51:33;76507.63;;;-143.36;nan
39209;BME280;24929;51.982;4.664;2023-04-23T04:53:59;76507.63;;;-143.36;nan
39209;BME280;24929;51.982;4.664;2023-04-23T04:56:24;76481.53;;;-143.36;nan
39209;BME280;24929;51.982;4.664;2023-04-23T04:58:50;76515.66;;;-143.36;nan
39209;BME280;24929;51.982;4.664;2023-04-23T05:01:16;76487.56;;;-143.36;nan
39209;BME280;24929;51.982;4.664;2023-04-23T05:03:42;76521.66;;;-143.36;nan
39209;BME280;24929;51.982;4.664;2023-04-23T05:06:08;76501.59;;;-143.36;nan
39209;BME280;24929;51.982;4.664;2023-04-23T05:08:34;76489.56;;;-143.36;nan
39209;BME280;24929;51.982;4.664;2023-04-23T05:10:59;76451.44;;;-143.36;nan
39209;BME280;24929;51.982;4.664;2023-04-23T05:13:25;76467.50;;;-143.36;nan
39209;BME280;24929;51.982;4.664;2023-04-23T05:15:51;76439.41;;;-143.36;nan
39209;BME280;24929;51.982;4.664;2023-04-23T05:18:16;76417.31;;;-143.36;nan
39209;BME280;24929;51.982;4.664;2023-04-23T05:20:41;76415.31;;;-143.36;nan
39209;BME280;24929;51.982;4.664;2023-04-23T05:23:07;76389.22;;;-143.36;nan
39209;BME280;24929;51.982;4.664;2023-04-23T05:25:32;76319.00;;;-143.36;nan
39209;BME280;24929;51.982;4.664;2023-04-23T05:27:59;76232.72;;;-143.36;nan
39209;BME280;24929;51.982;4.664;2023-04-23T05:30:25;76210.63;;;-143.36;nan
39209;BME280;24929;51.982;4.664;2023-04-23T05:32:51;76150.44;;;-143.36;nan
39209;BME280;24929;51.982;4.664;2023-04-23T05:35:16;76120.34;;;-143.36;nan
39209;BME280;24929;51.982;4.664;2023-04-23T05:37:41;76026.03;;;-143.36;nan
39209;BME280;24929;51.982;4.664;2023-04-23T05:40:08;75973.88;;;-143.36;nan
39209;BME280;24929;51.982;4.664;2023-04-23T05:42:34;75923.72;;;-143.36;nan
39209;BME280;24929;51.982;4.664;2023-04-23T05:45:00;75907.66;;;-143.36;nan
39209;BME280;24929;51.982;4.664;2023-04-23T05:47:25;75897.63;;;-143.36;nan
39209;BME280;24929;51.982;4.664;2023-04-23T05:49:51;75975.88;;;-143.36;nan
39209;BME280;24929;51.982;4.664;2023-04-23T05:52:17;75913.69;;;-143.36;nan
39209;BME280;24929;51.982;4.664;2023-04-23T05:54:43;76018.00;;;-143.36;nan
39209;BME280;24929;51.982;4.664;2023-04-23T05:57:08;75933.75;;;-143.36;nan
39209;BME280;24929;51.982;4.664;2023-04-23T05:59:33;75945.78;;;-143.36;nan
39209;BME280;24929;51.982;4.664;2023-04-23T06:01:59;75885.59;;;-143.36;nan
39209;BME280;24929;51.982;4.664;2023-04-23T06:04:24;75759.19;;;-143.36;nan
39209;BME280;24929;51.982;4.664;2023-04-23T06:06:51;75733.09;;;-143.36;nan
39209;BME280;24929;51.982;4.664;2023-04-23T06:09:16;75779.25;;;-143.36;nan
39209;BME280;24929;51.982;4.664;2023-04-23T06:11:41;75692.97;;;-143.36;nan
39209;BME280;24929;51.982;4.664;2023-04-23T06:14:07;75624.75;;;-143.36;nan
39209;BME280;24929;51.982;4.664;2023-04-23T06:16:32;75596.69;;;-143.36;nan
39209;BME280;24929;51.982;4.664;2023-04-23T06:22:17;75618.75;;;-143.36;nan
39209;BME280;24929;51.982;4.664;2023-04-23T06:24:43;75678.94;;;-143.36;nan
39209;BME280;24929;51.982;4.664;2023-04-23T06:27:09;75781.25;;;-143.36;nan
39209;BME280;24929;51.982;4.664;2023-04-23T06:29:34;75767.22;;;-143.36;nan
39209;BME280;24929;51.982;4.664;2023-04-23T06:32:00;75676.94;;;-143.36;nan
39209;BME280;24929;51.982;4.664;2023-04-23T06:34:26;75630.78;;;-143.36;nan
39209;BME280;24929;51.982;4.664;2023-04-23T06:36:53;75594.66;;;-143.36;nan
39209;BME280;24929;51.982;4.664;2023-04-23T06:39:18;75546.53;;;-143.36;nan
39209;BME280;24929;51.982;4.664;2023-04-23T06:41:43;75534.47;;;-143.36;nan
39209;BME280;24929;51.982;4.664;2023-04-23T06:44:09;75598.69;;;-143.36;nan
39209;BME280;24929;51.982;4.664;2023-04-23T06:46:34;75592.66;;;-143.36;nan
39209;BME280;24929;51.982;4.664;2023-04-23T06:49:00;75556.56;;;-143.36;nan
39209;BME280;24929;51.982;4.664;2023-04-23T06:51:25;75546.53;;;-143.36;nan
39209;BME280;24929;51.982;4.664;2023-04-23T06:53:52;75630.78;;;-143.36;nan
39209;BME280;24929;51.982;4.664;2023-04-23T06:56:17;75604.69;;;-143.36;nan
39209;BME280;24929;51.982;4.664;2023-04-23T06:58:43;75560.56;;;-143.36;nan
39209;BME280;24929;51.982;4.664;2023-04-23T07:01:08;75564.56;;;-143.36;nan
39209;BME280;24929;51.982;4.664;2023-04-23T07:03:34;75434.19;;;-143.36;nan
39209;BME280;24929;51.982;4.664;2023-04-23T07:06:00;75323.84;;;-143.36;nan
39209;BME280;24929;51.982;4.664;2023-04-23T07:08:25;75337.88;;;-143.36;nan
39209;BME280;24929;51.982;4.664;2023-04-23T07:10:51;75285.72;;;-143.36;nan
39209;BME280;24929;51.982;4.664;2023-04-23T07:13:17;75263.66;;;-143.36;nan
39209;BME280;24929;51.982;4.664;2023-04-23T07:15:43;75295.75;;;-143.36;nan
39209;BME280;24929;51.982;4.664;2023-04-23T07:18:08;75253.63;;;-143.36;nan
39209;BME280;24929;51.982;4.664;2023-04-23T07:20:33;75263.66;;;-143.36;nan
39209;BME280;24929;51.982;4.664;2023-04-23T07:22:59;75227.53;;;-143.36;nan
39209;BME280;24929;51.982;4.664;2023-04-23T07:25:25;75149.31;;;-143.36;nan
39209;BME280;24929;51.982;4.664;2023-04-23T07:34:21;75177.38;;;-143.36;nan
39209;BME280;24929;51.982;4.664;2023-04-23T07:36:46;75205.47;;;-143.36;nan
39209;BME280;24929;51.982;4.664;2023-04-23T07:39:12;75211.50;;;-143.36;nan
39209;BME280;24929;51.982;4.664;2023-04-23T07:41:40;75133.25;;;-143.36;nan
39209;BME280;24929;51.982;4.664;2023-04-23T07:44:06;75135.25;;;-143.36;nan
39209;BME280;24929;51.982;4.664;2023-04-23T07:46:31;75141.28;;;-143.36;nan
39209;BME280;24929;51.982;4.664;2023-04-23T07:48:56;75151.31;;;-143.36;nan
39209;BME280;24929;51.982;4.664;2023-04-23T07:51:22;75129.25;;;-143.36;nan
39209;BME280;24929;51.982;4.664;2023-04-23T07:53:51;75089.13;;;-143.36;nan
39209;BME280;24929;51.982;4.664;2023-04-23T07:56:21;75040.97;;;-143.36;nan
39209;BME280;24929;51.982;4.664;2023-04-23T07:58:48;75085.13;;;-143.36;nan
39209;BME280;24929;51.982;4.664;2023-04-23T08:01:14;75131.25;;;-143.36;nan
39209;BME280;24929;51.982;4.664;2023-04-23T08:03:40;75093.13;;;-143.36;nan
39209;BME280;24929;51.982;4.664;2023-04-23T08:06:05;75121.22;;;-143.36;nan
39209;BME280;24929;51.982;4.664;2023-04-23T08:08:31;75171.38;;;-143.36;nan
39209;BME280;24929;51.982;4.664;2023-04-23T08:10:57;75167.38;;;-143.36;nan
39209;BME280;24929;51.982;4.664;2023-04-23T08:13:22;75157.31;;;-143.36;nan
39209;BME280;24929;51.982;4.664;2023-04-23T08:15:48;75233.56;;;-143.36;nan
39209;BME280;24929;51.982;4.664;2023-04-23T08:18:14;75175.38;;;-143.36;nan
39209;BME280;24929;51.982;4.664;2023-04-23T08:20:39;75113.19;;;-143.36;nan
39209;BME280;24929;51.982;4.664;2023-04-23T08:26:27;75169.38;;;-143.36;nan
39209;BME280;24929;51.982;4.664;2023-04-23T08:28:52;75171.38;;;-143.36;nan
39209;BME280;24929;51.982;4.664;2023-04-23T08:31:18;75129.25;;;-143.36;nan
39209;BME280;24929;51.982;4.664;2023-04-23T08:33:43;75089.13;;;-143.36;nan
39209;BME280;24929;51.982;4.664;2023-04-23T08:36:09;75073.06;;;-143.36;nan
39209;BME280;24929;51.982;4.664;2023-04-23T08:38:34;75123.22;;;-143.36;nan
39209;BME280;24929;51.982;4.664;2023-04-23T08:41:00;75107.19;;;-143.36;nan
39209;BME280;24929;51.982;4.664;2023-04-23T08:43:33;75157.31;;;-143.36;nan
39209;BME280;24929;51.982;4.664;2023-04-23T08:46:02;75203.47;;;-143.36;nan
39209;BME280;24929;51.982;4.664;2023-04-23T08:48:33;75247.59;;;-143.36;nan
39209;BME280;24929;51.982;4.664;2023-04-23T08:51:01;75165.34;;;-143.36;nan
39209;BME280;24929;51.982;4.664;2023-04-23T08:53:26;75107.19;;;-143.36;nan
39209;BME280;24929;51.982;4.664;2023-04-23T08:55:53;75123.22;;;-143.36;nan
39209;BME280;24929;51.982;4.664;2023-04-23T08:58:20;75167.38;;;-143.36;nan
39209;BME280;24929;51.982;4.664;2023-04-23T09:00:46;75157.31;;;-143.36;nan
39209;BME280;24929;51.982;4.664;2023-04-23T09:03:15;75153.31;;;-143.36;nan
39209;BME280;24929;51.982;4.664;2023-04-23T09:05:41;75173.38;;;-143.36;nan
39209;BME280;24929;51.982;4.664;2023-04-23T09:08:06;75159.34;;;-143.36;nan
39209;BME280;24929;51.982;4.664;2023-04-23T09:10:36;75091.13;;;-143.36;nan
39209;BME280;24929;51.982;4.664;2023-04-23T09:13:01;75175.38;;;-143.36;nan
39209;BME280;24929;51.982;4.664;2023-04-23T09:15:27;75201.47;;;-143.36;nan
39209;BME280;24929;51.982;4.664;2023-04-23T09:17:57;75183.41;;;-143.36;nan
39209;BME280;24929;51.982;4.664;2023-04-23T09:20:23;75257.63;;;-143.36;nan
39209;BME280;24929;51.982;4.664;2023-04-23T09:22:50;75259.63;;;-143.36;nan
39209;BME280;24929;51.982;4.664;2023-04-23T09:25:18;75289.72;;;-143.36;nan
39209;BME280;24929;51.982;4.664;2023-04-23T09:27:45;75315.81;;;-143.36;nan
39209;BME280;24929;51.982;4.664;2023-04-23T09:30:11;75325.84;;;-143.36;nan
39209;BME280;24929;51.982;4.664;2023-04-23T09:32:41;75341.88;;;-143.36;nan
39209;BME280;24929;51.982;4.664;2023-04-23T09:35:09;75305.78;;;-143.36;nan
39209;BME280;24929;51.982;4.664;2023-04-23T09:37:35;75319.81;;;-143.36;nan
39209;BME280;24929;51.982;4.664;2023-04-23T09:40:03;75221.53;;;-143.36;nan
39209;BME280;24929;51.982;4.664;2023-04-23T09:42:30;75243.59;;;-143.36;nan
39209;BME280;24929;51.982;4.664;2023-04-23T09:44:59;75237.56;;;-143.36;nan
39209;BME280;24929;51.982;4.664;2023-04-23T09:47:24;75263.66;;;-143.36;nan
39209;BME280;24929;51.982;4.664;2023-04-23T09:49:50;75181.41;;;-143.36;nan
39209;BME280;24929;51.982;4.664;2023-04-23T09:52:16;75215.50;;;-143.36;nan
39209;BME280;24929;51.982;4.664;2023-04-23T09:54:42;75203.47;;;-143.36;nan
39209;BME280;24929;51.982;4.664;2023-04-23T09:57:10;75209.50;;;-143.36;nan
39209;BME280;24929;51.982;4.664;2023-04-23T09:59:36;75211.50;;;-143.36;nan
39209;BME280;24929;51.982;4.664;2023-04-23T10:02:03;75217.50;;;-143.36;nan
39209;BME280;24929;51.982;4.664;2023-04-23T10:04:28;75285.72;;;-143.36;nan
39209;BME280;24929;51.982;4.664;2023-04-23T10:06:55;75221.53;;;-143.36;nan
39209;BME280;24929;51.982;4.664;2023-04-23T10:09:21;75335.88;;;-143.36;nan
39209;BME280;24929;51.982;4.664;2023-04-23T10:11:53;75239.56;;;-143.36;nan
39209;BME280;24929;51.982;4.664;2023-04-23T10:14:20;75231.56;;;-143.36;nan
39209;BME280;24929;51.982;4.664;2023-04-23T10:16:46;75289.72;;;-143.36;nan
39209;BME280;24929;51.982;4.664;2023-04-23T10:19:14;75327.84;;;-143.36;nan
39209;BME280;24929;51.982;4.664;2023-04-23T10:21:43;75289.72;;;-143.36;nan
39209;BME280;24929;51.982;4.664;2023-04-23T10:24:11;75303.78;;;-143.36;nan
39209;BME280;24929;51.982;4.664;2023-04-23T10:26:37;75349.91;;;-143.36;nan
39209;BME280;24929;51.982;4.664;2023-04-23T10:29:08;75297.75;;;-143.36;nan
39209;BME280;24929;51.982;4.664;2023-04-23T10:31:39;75307.78;;;-143.36;nan
39209;BME280;24929;51.982;4.664;2023-04-23T10:34:04;75347.91;;;-143.36;nan
39209;BME280;24929;51.982;4.664;2023-04-23T10:36:33;75263.66;;;-143.36;nan
39209;BME280;24929;51.982;4.664;2023-04-23T10:38:59;75327.84;;;-143.36;nan
39209;BME280;24929;51.982;4.664;2023-04-23T10:41:36;75213.50;;;-143.36;nan
39209;BME280;24929;51.982;4.664;2023-04-23T10:44:03;75241.59;;;-143.36;nan
39209;BME280;24929;51.982;4.664;2023-04-23T10:46:30;75261.66;;;-143.36;nan
39209;BME280;24929;51.982;4.664;2023-04-23T10:49:12;75181.41;;;-143.36;nan
39209;BME280;24929;51.982;4.664;2023-04-23T10:51:39;75193.44;;;-143.36;nan
39209;BME280;24929;51.982;4.664;2023-04-23T10:54:07;75211.50;;;-143.36;nan
39209;BME280;24929;51.982;4.664;2023-04-23T10:56:37;75223.53;;;-143.36;nan
39209;BME280;24929;51.982;4.664;2023-04-23T10:59:26;75187.41;;;-143.36;nan
39209;BME280;24929;51.982;4.664;2023-04-23T11:01:51;75219.53;;;-143.36;nan
39209;BME280;24929;51.982;4.664;2023-04-23T11:04:24;75157.31;;;-143.36;nan
39209;BME280;24929;51.982;4.664;2023-04-23T11:06:51;75179.41;;;-143.36;nan
39209;BME280;24929;51.982;4.664;2023-04-23T11:09:40;75145.28;;;-143.36;nan
39209;BME280;24929;51.982;4.664;2023-04-23T11:12:32;75193.44;;;-143.36;nan
39209;BME280;24929;51.982;4.664;2023-04-23T11:14:58;75247.59;;;-143.36;nan
39209;BME280;24929;51.982;4.664;2023-04-23T11:20:17;75177.38;;;-143.36;nan
39209;BME280;24929;51.982;4.664;2023-04-23T11:22:51;75151.31;;;-143.36;nan
39209;BME280;24929;51.982;4.664;2023-04-23T11:25:27;75151.31;;;-143.36;nan
39209;BME280;24929;51.982;4.664;2023-04-23T11:27:54;75179.41;;;-143.36;nan
39209;BME280;24929;51.982;4.664;2023-04-23T11:30:27;75181.41;;;-143.36;nan
39209;BME280;24929;51.982;4.664;2023-04-23T11:32:55;75221.53;;;-143.36;nan
39209;BME280;24929;51.982;4.664;2023-04-23T11:38:42;75171.38;;;-143.36;nan
39209;BME280;24929;51.982;4.664;2023-04-23T11:41:08;75149.31;;;-143.36;nan
39209;BME280;24929;51.982;4.664;2023-04-23T11:43:34;75151.31;;;-143.36;nan
39209;BME280;24929;51.982;4.664;2023-04-23T11:46:00;75155.31;;;-143.36;nan
39209;BME280;24929;51.982;4.664;2023-04-23T11:48:26;75097.16;;;-143.36;nan
39209;BME280;24929;51.982;4.664;2023-04-23T11:50:51;75057.03;;;-143.36;nan
39209;BME280;24929;51.982;4.664;2023-04-23T11:53:17;75036.97;;;-143.36;nan
39209;BME280;24929;51.982;4.664;2023-04-23T11:55:42;75045.00;;;-143.36;nan
39209;BME280;24929;51.982;4.664;2023-04-23T11:58:08;75057.03;;;-143.36;nan
39209;BME280;24929;51.982;4.664;2023-04-23T12:00:34;75055.03;;;-143.36;nan
39209;BME280;24929;51.982;4.664;2023-04-23T12:03:01;75067.06;;;-143.36;nan
39209;BME280;24929;51.982;4.664;2023-04-23T12:05:34;75016.91;;;-143.36;nan
39209;BME280;24929;51.982;4.664;2023-04-23T12:10:50;74988.81;;;-143.36;nan
39209;BME280;24929;51.982;4.664;2023-04-23T12:13:30;74974.78;;;-143.36;nan
39209;BME280;24929;51.982;4.664;2023-04-23T12:16:00;75119.22;;;-143.36;nan
39209;BME280;24929;51.982;4.664;2023-04-23T12:18:30;75036.97;;;-143.36;nan
39209;BME280;24929;51.982;4.664;2023-04-23T12:21:04;75051.00;;;-143.36;nan
39209;BME280;24929;51.982;4.664;2023-04-23T12:23:30;75026.94;;;-143.36;nan
39209;BME280;24929;51.982;4.664;2023-04-23T12:25:55;74988.81;;;-143.36;nan
39209;BME280;24929;51.982;4.664;2023-04-23T12:28:24;74970.78;;;-143.36;nan
39209;BME280;24929;51.982;4.664;2023-04-23T12:30:50;74996.84;;;-143.36;nan
39209;BME280;24929;51.982;4.664;2023-04-23T12:33:16;75018.91;;;-143.36;nan
39209;BME280;24929;51.982;4.664;2023-04-23T12:35:44;75008.88;;;-143.36;nan
39209;BME280;24929;51.982;4.664;2023-04-23T12:41:32;75133.25;;;-143.36;nan
39209;BME280;24929;51.982;4.664;2023-04-23T12:43:57;75163.34;;;-143.36;nan
39209;BME280;24929;51.982;4.664;2023-04-23T12:46:23;75181.41;;;-143.36;nan
39209;BME280;24929;51.982;4.664;2023-04-23T12:48:48;75101.16;;;-143.36;nan
39209;BME280;24929;51.982;4.664;2023-04-23T12:51:13;75157.31;;;-143.36;nan
39209;BME280;24929;51.982;4.664;2023-04-23T12:53:39;75179.41;;;-143.36;nan
39209;BME280;24929;51.982;4.664;2023-04-23T12:56:04;75185.41;;;-143.36;nan
39209;BME280;24929;51.982;4.664;2023-04-23T12:58:30;75205.47;;;-143.36;nan
39209;BME280;24929;51.982;4.664;2023-04-23T13:00:55;75235.56;;;-143.36;nan
39209;BME280;24929;51.982;4.664;2023-04-23T13:03:21;75261.66;;;-143.36;nan
39209;BME280;24929;51.982;4.664;2023-04-23T13:05:46;75428.16;;;-143.36;nan
39209;BME280;24929;51.982;4.664;2023-04-23T13:08:12;75566.59;;;-143.36;nan
39209;BME280;24929;51.982;4.664;2023-04-23T13:10:37;75660.88;;;-143.36;nan
39209;BME280;24929;51.982;4.664;2023-04-23T13:13:03;75662.88;;;-143.36;nan
39209;BME280;24929;51.982;4.664;2023-04-23T13:15:28;75624.75;;;-143.36;nan
39209;BME280;24929;51.982;4.664;2023-04-23T13:17:53;75632.78;;;-143.36;nan
39209;BME280;24929;51.982;4.664;2023-04-23T13:20:22;75598.69;;;-143.36;nan
39209;BME280;24929;51.982;4.664;2023-04-23T13:22:49;75672.91;;;-143.36;nan